Strona główna
METAR-TAF:

METAR-TAF

Lotnisko :

Robinson Municipal Airport

Robinson, Illinois, Stany Zjednoczone

Szerokość geograficzna: 39-00-57N, Długość geograficzna: 087-38-59W, wysokość: 141 m

Aktualna obserwacja pogody

Raport powstał 17 minut temu, godzina 18:55 UTC
Wiatr 4 kt od północ
Temperatura -7°C
Wilgotność 79%
Ciśnienie 1037 hPa
Widzialność: 16.1 km
Zachmurzenie całkowite na wysokości 1600 ft

METAR: KRSV 201855Z AUTO 01004KT 10SM OVC016 M07/M10 A3062 RMK AO2 T10671098

czas: 13:12 (19:12 UTC)


TAF: brakujący

Obserwacja i prognoza pogody dla ponad 4000 lotnisk (raport METAR i TAF).

Dostępne stacje oznaczono żółtymi i czerwonymi punktami na mapie.

Najedź kursorem aby zobaczyć nazwę stacji.

Kliknij aby zobaczyć obserwacje i prognozy pogody.

Aby zmienić mapę: kliknij na zielony przycisk z czarnym krzyżykiem, aby powiększyć; na zielony przycisk z myślnikiem, aby pomniejszyć; na zielone strzałki, aby przejść do map sąsiednich.


METAR-TAF: